sensor_id;sensor_type;location;lat;lon;timestamp;pressure;altitude;pressure_sealevel;temperature;humidity
12468;BME280;57850;52.922;6.256;2023-04-01T00:02:21;98654.00;;;13.33;100.00
12468;BME280;57850;52.922;6.256;2023-04-01T00:04:48;98649.84;;;13.51;100.00
12468;BME280;57850;52.922;6.256;2023-04-01T00:07:15;98661.00;;;13.44;100.00
12468;BME280;57850;52.922;6.256;2023-04-01T00:09:41;98641.41;;;13.48;100.00
12468;BME280;57850;52.922;6.256;2023-04-01T00:12:08;98645.63;;;13.60;100.00
12468;BME280;57850;52.922;6.256;2023-04-01T00:14:35;98662.13;;;13.51;100.00
12468;BME280;57850;52.922;6.256;2023-04-01T00:17:03;98649.09;;;13.60;100.00
12468;BME280;57850;52.922;6.256;2023-04-01T00:19:30;98656.25;;;13.58;100.00
12468;BME280;57850;52.922;6.256;2023-04-01T00:21:58;98665.38;;;13.43;100.00
12468;BME280;57850;52.922;6.256;2023-04-01T00:24:24;98663.47;;;13.45;100.00
12468;BME280;57850;52.922;6.256;2023-04-01T00:26:51;98671.25;;;13.35;100.00
12468;BME280;57850;52.922;6.256;2023-04-01T00:29:18;98641.56;;;13.46;100.00
12468;BME280;57850;52.922;6.256;2023-04-01T00:31:44;98653.13;;;13.44;100.00
12468;BME280;57850;52.922;6.256;2023-04-01T00:34:13;98643.38;;;13.34;100.00
12468;BME280;57850;52.922;6.256;2023-04-01T00:36:39;98641.34;;;13.38;100.00
12468;BME280;57850;52.922;6.256;2023-04-01T00:39:06;98643.78;;;13.30;100.00
12468;BME280;57850;52.922;6.256;2023-04-01T00:41:32;98637.59;;;13.52;100.00
12468;BME280;57850;52.922;6.256;2023-04-01T00:44:16;98635.59;;;13.44;100.00
12468;BME280;57850;52.922;6.256;2023-04-01T00:46:43;98643.13;;;13.37;100.00
12468;BME280;57850;52.922;6.256;2023-04-01T00:49:10;98634.75;;;13.23;100.00
12468;BME280;57850;52.922;6.256;2023-04-01T00:51:39;98620.22;;;13.30;100.00
12468;BME280;57850;52.922;6.256;2023-04-01T00:54:08;98590.38;;;13.42;100.00
12468;BME280;57850;52.922;6.256;2023-04-01T00:56:38;98605.13;;;13.43;100.00
12468;BME280;57850;52.922;6.256;2023-04-01T00:59:10;98614.13;;;13.29;100.00
12468;BME280;57850;52.922;6.256;2023-04-01T01:01:38;98613.31;;;13.29;100.00
12468;BME280;57850;52.922;6.256;2023-04-01T01:04:05;98608.28;;;13.37;100.00
12468;BME280;57850;52.922;6.256;2023-04-01T01:06:42;98609.16;;;13.26;100.00
12468;BME280;57850;52.922;6.256;2023-04-01T01:09:20;98602.38;;;13.24;100.00
12468;BME280;57850;52.922;6.256;2023-04-01T01:11:54;98601.22;;;13.37;100.00
12468;BME280;57850;52.922;6.256;2023-04-01T01:14:34;98609.72;;;13.30;100.00
12468;BME280;57850;52.922;6.256;2023-04-01T01:17:09;98627.19;;;13.40;100.00
12468;BME280;57850;52.922;6.256;2023-04-01T01:22:52;98623.66;;;13.30;100.00
12468;BME280;57850;52.922;6.256;2023-04-01T01:25:32;98608.63;;;13.32;100.00
12468;BME280;57850;52.922;6.256;2023-04-01T01:28:20;98610.22;;;13.45;100.00
12468;BME280;57850;52.922;6.256;2023-04-01T01:30:55;98628.00;;;13.41;100.00
12468;BME280;57850;52.922;6.256;2023-04-01T01:33:35;98637.47;;;13.53;100.00
12468;BME280;57850;52.922;6.256;2023-04-01T01:36:09;98632.72;;;13.47;100.00
12468;BME280;57850;52.922;6.256;2023-04-01T01:38:39;98636.63;;;13.53;100.00
12468;BME280;57850;52.922;6.256;2023-04-01T01:41:07;98656.78;;;13.52;100.00
12468;BME280;57850;52.922;6.256;2023-04-01T01:43:38;98662.59;;;13.56;100.00
12468;BME280;57850;52.922;6.256;2023-04-01T01:46:09;98667.91;;;13.65;100.00
12468;BME280;57850;52.922;6.256;2023-04-01T01:48:37;98694.41;;;13.51;100.00
12468;BME280;57850;52.922;6.256;2023-04-01T01:51:06;98679.44;;;13.42;100.00
12468;BME280;57850;52.922;6.256;2023-04-01T01:53:33;98668.72;;;13.45;100.00
12468;BME280;57850;52.922;6.256;2023-04-01T01:56:00;98667.28;;;13.41;100.00
12468;BME280;57850;52.922;6.256;2023-04-01T01:58:30;98663.72;;;13.42;100.00
12468;BME280;57850;52.922;6.256;2023-04-01T02:00:59;98671.72;;;13.40;100.00
12468;BME280;57850;52.922;6.256;2023-04-01T02:03:29;98668.59;;;13.47;100.00
12468;BME280;57850;52.922;6.256;2023-04-01T02:05:59;98680.97;;;13.45;100.00
12468;BME280;57850;52.922;6.256;2023-04-01T02:08:32;98671.66;;;13.52;100.00
12468;BME280;57850;52.922;6.256;2023-04-01T02:11:02;98687.47;;;13.50;100.00
12468;BME280;57850;52.922;6.256;2023-04-01T02:13:32;98694.53;;;13.50;100.00
12468;BME280;57850;52.922;6.256;2023-04-01T02:16:03;98704.69;;;13.43;100.00
12468;BME280;57850;52.922;6.256;2023-04-01T02:18:35;98692.72;;;13.50;100.00
12468;BME280;57850;52.922;6.256;2023-04-01T02:21:03;98701.22;;;13.43;100.00
12468;BME280;57850;52.922;6.256;2023-04-01T02:23:35;98708.59;;;13.49;100.00
12468;BME280;57850;52.922;6.256;2023-04-01T02:26:03;98703.34;;;13.49;100.00
12468;BME280;57850;52.922;6.256;2023-04-01T02:28:31;98708.34;;;13.52;100.00
12468;BME280;57850;52.922;6.256;2023-04-01T02:30:59;98717.72;;;13.54;100.00
12468;BME280;57850;52.922;6.256;2023-04-01T02:33:28;98715.69;;;13.58;100.00
12468;BME280;57850;52.922;6.256;2023-04-01T02:35:55;98717.28;;;13.49;100.00
12468;BME280;57850;52.922;6.256;2023-04-01T02:38:22;98723.34;;;13.50;100.00
12468;BME280;57850;52.922;6.256;2023-04-01T02:40:51;98724.75;;;13.54;100.00
12468;BME280;57850;52.922;6.256;2023-04-01T02:43:22;98731.06;;;13.51;100.00
12468;BME280;57850;52.922;6.256;2023-04-01T02:45:49;98739.44;;;13.45;100.00
12468;BME280;57850;52.922;6.256;2023-04-01T02:48:15;98744.09;;;13.41;100.00
12468;BME280;57850;52.922;6.256;2023-04-01T02:50:42;98734.34;;;13.44;100.00
12468;BME280;57850;52.922;6.256;2023-04-01T02:53:09;98750.31;;;13.40;100.00
12468;BME280;57850;52.922;6.256;2023-04-01T02:55:35;98742.50;;;13.50;100.00
12468;BME280;57850;52.922;6.256;2023-04-01T02:58:03;98756.25;;;13.43;100.00
12468;BME280;57850;52.922;6.256;2023-04-01T03:00:30;98759.47;;;13.35;100.00
12468;BME280;57850;52.922;6.256;2023-04-01T03:02:57;98747.22;;;13.35;100.00
12468;BME280;57850;52.922;6.256;2023-04-01T03:05:23;98738.09;;;13.51;100.00
12468;BME280;57850;52.922;6.256;2023-04-01T03:07:50;98733.34;;;13.56;100.00
12468;BME280;57850;52.922;6.256;2023-04-01T03:10:19;98742.28;;;13.53;100.00
12468;BME280;57850;52.922;6.256;2023-04-01T03:12:46;98741.63;;;13.61;100.00
12468;BME280;57850;52.922;6.256;2023-04-01T03:15:14;98750.00;;;13.55;100.00
12468;BME280;57850;52.922;6.256;2023-04-01T03:17:42;98762.41;;;13.53;100.00
12468;BME280;57850;52.922;6.256;2023-04-01T03:20:09;98751.34;;;13.49;100.00
12468;BME280;57850;52.922;6.256;2023-04-01T03:22:37;98758.13;;;13.52;100.00
12468;BME280;57850;52.922;6.256;2023-04-01T03:25:05;98757.16;;;13.53;100.00
12468;BME280;57850;52.922;6.256;2023-04-01T03:27:33;98767.91;;;13.50;100.00
12468;BME280;57850;52.922;6.256;2023-04-01T03:29:59;98769.44;;;13.41;100.00
12468;BME280;57850;52.922;6.256;2023-04-01T03:32:27;98757.53;;;13.48;100.00
12468;BME280;57850;52.922;6.256;2023-04-01T03:34:54;98759.56;;;13.45;100.00
12468;BME280;57850;52.922;6.256;2023-04-01T03:37:20;98746.22;;;13.48;100.00
12468;BME280;57850;52.922;6.256;2023-04-01T03:39:47;98746.44;;;13.56;100.00
12468;BME280;57850;52.922;6.256;2023-04-01T03:42:14;98763.25;;;13.53;100.00
12468;BME280;57850;52.922;6.256;2023-04-01T03:44:40;98758.22;;;13.50;100.00
12468;BME280;57850;52.922;6.256;2023-04-01T03:47:07;98758.94;;;13.52;100.00
12468;BME280;57850;52.922;6.256;2023-04-01T03:49:35;98768.59;;;13.52;100.00
12468;BME280;57850;52.922;6.256;2023-04-01T03:52:02;98770.38;;;13.51;100.00
12468;BME280;57850;52.922;6.256;2023-04-01T03:54:29;98765.13;;;13.51;100.00
12468;BME280;57850;52.922;6.256;2023-04-01T03:56:55;98766.59;;;13.44;100.00
12468;BME280;57850;52.922;6.256;2023-04-01T03:59:23;98771.25;;;13.40;100.00
12468;BME280;57850;52.922;6.256;2023-04-01T04:01:49;98757.59;;;13.58;100.00
12468;BME280;57850;52.922;6.256;2023-04-01T04:04:16;98765.72;;;13.55;100.00
12468;BME280;57850;52.922;6.256;2023-04-01T04:06:44;98769.53;;;13.51;100.00
12468;BME280;57850;52.922;6.256;2023-04-01T04:09:10;98768.47;;;13.53;100.00
12468;BME280;57850;52.922;6.256;2023-04-01T04:11:37;98775.75;;;13.50;100.00
12468;BME280;57850;52.922;6.256;2023-04-01T04:14:03;98772.50;;;13.57;100.00
12468;BME280;57850;52.922;6.256;2023-04-01T04:16:30;98785.50;;;13.59;100.00
12468;BME280;57850;52.922;6.256;2023-04-01T04:18:57;98777.91;;;13.45;100.00
12468;BME280;57850;52.922;6.256;2023-04-01T04:21:23;98781.94;;;13.49;100.00
12468;BME280;57850;52.922;6.256;2023-04-01T04:23:51;98787.19;;;13.37;100.00
12468;BME280;57850;52.922;6.256;2023-04-01T04:26:18;98777.06;;;13.44;100.00
12468;BME280;57850;52.922;6.256;2023-04-01T04:28:44;98777.97;;;13.54;100.00
12468;BME280;57850;52.922;6.256;2023-04-01T04:31:11;98798.28;;;13.41;100.00
12468;BME280;57850;52.922;6.256;2023-04-01T04:33:38;98801.03;;;13.39;100.00
12468;BME280;57850;52.922;6.256;2023-04-01T04:36:05;98803.00;;;13.47;100.00
12468;BME280;57850;52.922;6.256;2023-04-01T04:38:32;98806.25;;;13.39;100.00
12468;BME280;57850;52.922;6.256;2023-04-01T04:41:00;98809.00;;;13.38;100.00
12468;BME280;57850;52.922;6.256;2023-04-01T04:43:27;98810.16;;;13.45;100.00
12468;BME280;57850;52.922;6.256;2023-04-01T04:45:53;98814.31;;;13.48;100.00
12468;BME280;57850;52.922;6.256;2023-04-01T04:48:20;98818.41;;;13.40;100.00
12468;BME280;57850;52.922;6.256;2023-04-01T04:50:47;98830.19;;;13.46;100.00
12468;BME280;57850;52.922;6.256;2023-04-01T04:53:15;98827.47;;;13.36;100.00
12468;BME280;57850;52.922;6.256;2023-04-01T04:55:45;98839.38;;;13.40;100.00
12468;BME280;57850;52.922;6.256;2023-04-01T04:58:13;98841.25;;;13.38;100.00
12468;BME280;57850;52.922;6.256;2023-04-01T05:00:40;98843.28;;;13.35;100.00
12468;BME280;57850;52.922;6.256;2023-04-01T05:03:06;98841.03;;;13.41;100.00
12468;BME280;57850;52.922;6.256;2023-04-01T05:05:33;98834.25;;;13.39;100.00
12468;BME280;57850;52.922;6.256;2023-04-01T05:08:00;98838.53;;;13.29;100.00
12468;BME280;57850;52.922;6.256;2023-04-01T05:10:26;98832.31;;;13.41;100.00
12468;BME280;57850;52.922;6.256;2023-04-01T05:12:53;98838.75;;;13.48;100.00
12468;BME280;57850;52.922;6.256;2023-04-01T05:15:21;98843.97;;;13.48;100.00
12468;BME280;57850;52.922;6.256;2023-04-01T05:17:48;98853.41;;;13.39;100.00
12468;BME280;57850;52.922;6.256;2023-04-01T05:20:15;98843.03;;;13.49;100.00
12468;BME280;57850;52.922;6.256;2023-04-01T05:22:42;98847.44;;;13.49;100.00
12468;BME280;57850;52.922;6.256;2023-04-01T05:25:09;98848.72;;;13.54;100.00
12468;BME280;57850;52.922;6.256;2023-04-01T05:27:35;98859.09;;;13.56;100.00
12468;BME280;57850;52.922;6.256;2023-04-01T05:30:03;98873.06;;;13.45;100.00
12468;BME280;57850;52.922;6.256;2023-04-01T05:32:32;98867.16;;;13.64;100.00
12468;BME280;57850;52.922;6.256;2023-04-01T05:34:58;98883.28;;;13.59;100.00
12468;BME280;57850;52.922;6.256;2023-04-01T05:37:25;98889.97;;;13.52;100.00
12468;BME280;57850;52.922;6.256;2023-04-01T05:39:52;98899.84;;;13.49;100.00
12468;BME280;57850;52.922;6.256;2023-04-01T05:42:18;98899.25;;;13.45;100.00
12468;BME280;57850;52.922;6.256;2023-04-01T05:44:45;98888.78;;;13.45;100.00
12468;BME280;57850;52.922;6.256;2023-04-01T05:47:11;98881.13;;;13.64;100.00
12468;BME280;57850;52.922;6.256;2023-04-01T05:49:39;98890.50;;;13.67;100.00
12468;BME280;57850;52.922;6.256;2023-04-01T05:52:06;98906.38;;;13.65;100.00
12468;BME280;57850;52.922;6.256;2023-04-01T05:54:33;98910.19;;;13.61;100.00
12468;BME280;57850;52.922;6.256;2023-04-01T05:56:59;98907.91;;;13.57;100.00
12468;BME280;57850;52.922;6.256;2023-04-01T05:59:26;98911.75;;;13.53;100.00
12468;BME280;57850;52.922;6.256;2023-04-01T06:01:53;98909.84;;;13.55;100.00
12468;BME280;57850;52.922;6.256;2023-04-01T06:04:20;98918.53;;;13.44;100.00
12468;BME280;57850;52.922;6.256;2023-04-01T06:06:48;98906.03;;;13.59;100.00
12468;BME280;57850;52.922;6.256;2023-04-01T06:09:16;98916.75;;;13.45;100.00
12468;BME280;57850;52.922;6.256;2023-04-01T06:11:54;98900.88;;;13.57;100.00
12468;BME280;57850;52.922;6.256;2023-04-01T06:14:31;98904.03;;;13.40;100.00
12468;BME280;57850;52.922;6.256;2023-04-01T06:17:16;98890.56;;;13.56;100.00
12468;BME280;57850;52.922;6.256;2023-04-01T06:19:49;98910.66;;;13.55;100.00
12468;BME280;57850;52.922;6.256;2023-04-01T06:22:45;98906.88;;;13.59;100.00
12468;BME280;57850;52.922;6.256;2023-04-01T06:25:29;98909.47;;;13.59;100.00
12468;BME280;57850;52.922;6.256;2023-04-01T06:31:16;98917.69;;;13.55;100.00
12468;BME280;57850;52.922;6.256;2023-04-01T06:33:56;98922.34;;;13.62;100.00
12468;BME280;57850;52.922;6.256;2023-04-01T06:36:52;98936.63;;;13.47;100.00
12468;BME280;57850;52.922;6.256;2023-04-01T06:39:32;98926.38;;;13.66;100.00
12468;BME280;57850;52.922;6.256;2023-04-01T06:42:15;98934.56;;;13.73;100.00
12468;BME280;57850;52.922;6.256;2023-04-01T06:44:50;98937.69;;;13.67;100.00
12468;BME280;57850;52.922;6.256;2023-04-01T06:47:33;98944.25;;;13.61;100.00
12468;BME280;57850;52.922;6.256;2023-04-01T06:50:07;98945.06;;;13.73;100.00
12468;BME280;57850;52.922;6.256;2023-04-01T06:52:45;98959.84;;;13.74;100.00
12468;BME280;57850;52.922;6.256;2023-04-01T06:55:26;98970.31;;;13.74;100.00
12468;BME280;57850;52.922;6.256;2023-04-01T06:57:55;98983.22;;;13.55;100.00
12468;BME280;57850;52.922;6.256;2023-04-01T07:00:28;98993.09;;;13.40;100.00
12468;BME280;57850;52.922;6.256;2023-04-01T07:03:02;98998.81;;;13.45;100.00
12468;BME280;57850;52.922;6.256;2023-04-01T07:05:32;98989.97;;;13.35;100.00
12468;BME280;57850;52.922;6.256;2023-04-01T07:08:02;98988.78;;;13.50;100.00
12468;BME280;57850;52.922;6.256;2023-04-01T07:10:35;98985.25;;;13.62;100.00
12468;BME280;57850;52.922;6.256;2023-04-01T07:13:06;98995.84;;;13.50;100.00
12468;BME280;57850;52.922;6.256;2023-04-01T07:15:39;99013.09;;;13.52;100.00
12468;BME280;57850;52.922;6.256;2023-04-01T07:18:12;99035.13;;;13.38;100.00
12468;BME280;57850;52.922;6.256;2023-04-01T07:20:41;99042.84;;;13.29;100.00
12468;BME280;57850;52.922;6.256;2023-04-01T07:23:15;99042.63;;;13.43;100.00
12468;BME280;57850;52.922;6.256;2023-04-01T07:25:48;99047.75;;;13.45;100.00
12468;BME280;57850;52.922;6.256;2023-04-01T07:28:18;99043.00;;;13.61;100.00
12468;BME280;57850;52.922;6.256;2023-04-01T07:30:52;99067.75;;;13.57;100.00
12468;BME280;57850;52.922;6.256;2023-04-01T07:33:29;99068.38;;;13.49;100.00
12468;BME280;57850;52.922;6.256;2023-04-01T07:36:03;99066.34;;;13.53;100.00
12468;BME280;57850;52.922;6.256;2023-04-01T07:38:40;99069.34;;;13.59;100.00
12468;BME280;57850;52.922;6.256;2023-04-01T07:41:17;99078.59;;;13.41;100.00
12468;BME280;57850;52.922;6.256;2023-04-01T07:44:00;99082.03;;;13.41;100.00
12468;BME280;57850;52.922;6.256;2023-04-01T07:46:50;99079.19;;;13.45;100.00
12468;BME280;57850;52.922;6.256;2023-04-01T07:49:28;99070.97;;;13.60;100.00
12468;BME280;57850;52.922;6.256;2023-04-01T07:52:00;99093.59;;;13.39;100.00
12468;BME280;57850;52.922;6.256;2023-04-01T07:54:34;99082.19;;;13.62;100.00
12468;BME280;57850;52.922;6.256;2023-04-01T07:57:08;99084.69;;;13.53;100.00
12468;BME280;57850;52.922;6.256;2023-04-01T07:59:41;99091.00;;;13.72;100.00
12468;BME280;57850;52.922;6.256;2023-04-01T08:02:20;99113.06;;;13.59;100.00
12468;BME280;57850;52.922;6.256;2023-04-01T08:04:55;99111.41;;;13.69;100.00
12468;BME280;57850;52.922;6.256;2023-04-01T08:07:33;99129.00;;;13.67;100.00
12468;BME280;57850;52.922;6.256;2023-04-01T08:10:10;99120.56;;;13.74;100.00
12468;BME280;57850;52.922;6.256;2023-04-01T08:12:48;99130.09;;;13.75;100.00
12468;BME280;57850;52.922;6.256;2023-04-01T08:15:21;99130.22;;;13.85;100.00
12468;BME280;57850;52.922;6.256;2023-04-01T08:17:59;99145.72;;;13.88;100.00
12468;BME280;57850;52.922;6.256;2023-04-01T08:20:34;99147.63;;;13.97;100.00
12468;BME280;57850;52.922;6.256;2023-04-01T08:23:06;99163.72;;;13.92;100.00
12468;BME280;57850;52.922;6.256;2023-04-01T08:25:39;99167.66;;;13.98;100.00
12468;BME280;57850;52.922;6.256;2023-04-01T08:28:15;99188.13;;;13.82;100.00
12468;BME280;57850;52.922;6.256;2023-04-01T08:30:46;99176.38;;;13.99;100.00
12468;BME280;57850;52.922;6.256;2023-04-01T08:33:17;99192.81;;;13.89;100.00
12468;BME280;57850;52.922;6.256;2023-04-01T08:35:47;99191.03;;;14.01;100.00
12468;BME280;57850;52.922;6.256;2023-04-01T08:38:20;99193.53;;;14.03;100.00
12468;BME280;57850;52.922;6.256;2023-04-01T08:40:59;99199.63;;;14.25;100.00
12468;BME280;57850;52.922;6.256;2023-04-01T08:46:54;99216.50;;;14.34;100.00
12468;BME280;57850;52.922;6.256;2023-04-01T08:49:36;99224.56;;;14.31;100.00
12468;BME280;57850;52.922;6.256;2023-04-01T08:52:28;99230.41;;;14.12;100.00
12468;BME280;57850;52.922;6.256;2023-04-01T08:55:12;99214.88;;;14.20;100.00
12468;BME280;57850;52.922;6.256;2023-04-01T08:57:52;99220.25;;;14.30;100.00
12468;BME280;57850;52.922;6.256;2023-04-01T09:00:27;99216.59;;;14.43;100.00
12468;BME280;57850;52.922;6.256;2023-04-01T09:03:13;99217.78;;;14.51;100.00
12468;BME280;57850;52.922;6.256;2023-04-01T09:08:53;99234.97;;;14.43;100.00
12468;BME280;57850;52.922;6.256;2023-04-01T09:11:33;99232.09;;;14.58;100.00
12468;BME280;57850;52.922;6.256;2023-04-01T09:14:23;99248.56;;;14.48;100.00
12468;BME280;57850;52.922;6.256;2023-04-01T09:17:19;99254.53;;;14.39;100.00
12468;BME280;57850;52.922;6.256;2023-04-01T09:20:05;99262.94;;;14.32;100.00
12468;BME280;57850;52.922;6.256;2023-04-01T09:22:51;99236.72;;;14.21;100.00
12468;BME280;57850;52.922;6.256;2023-04-01T09:25:47;99224.13;;;14.37;100.00
12468;BME280;57850;52.922;6.256;2023-04-01T09:28:19;99223.03;;;14.51;100.00
12468;BME280;57850;52.922;6.256;2023-04-01T09:36:47;99254.78;;;14.59;100.00
12468;BME280;57850;52.922;6.256;2023-04-01T09:39:31;99277.81;;;14.55;100.00
12468;BME280;57850;52.922;6.256;2023-04-01T09:42:14;99271.59;;;14.67;100.00
12468;BME280;57850;52.922;6.256;2023-04-01T09:44:47;99289.00;;;14.79;100.00
12468;BME280;57850;52.922;6.256;2023-04-01T09:47:38;99315.88;;;14.50;100.00
12468;BME280;57850;52.922;6.256;2023-04-01T09:50:30;99322.75;;;14.39;100.00
12468;BME280;57850;52.922;6.256;2023-04-01T09:53:11;99323.13;;;14.57;100.00
12468;BME280;57850;52.922;6.256;2023-04-01T09:56:01;99328.91;;;14.84;100.00
12468;BME280;57850;52.922;6.256;2023-04-01T09:58:57;99349.31;;;15.03;100.00
12468;BME280;57850;52.922;6.256;2023-04-01T10:01:42;99376.28;;;14.94;100.00
12468;BME280;57850;52.922;6.256;2023-04-01T10:04:41;99391.94;;;15.07;100.00
12468;BME280;57850;52.922;6.256;2023-04-01T10:07:41;99387.25;;;15.10;100.00
12468;BME280;57850;52.922;6.256;2023-04-01T10:22:21;99458.34;;;15.31;100.00
12468;BME280;57850;52.922;6.256;2023-04-01T10:25:05;99499.06;;;15.25;100.00
12468;BME280;57850;52.922;6.256;2023-04-01T10:27:52;99517.34;;;15.27;100.00
12468;BME280;57850;52.922;6.256;2023-04-01T10:36:50;99520.50;;;15.54;100.00
12468;BME280;57850;52.922;6.256;2023-04-01T10:39:34;99555.72;;;14.94;100.00
12468;BME280;57850;52.922;6.256;2023-04-01T10:45:52;99550.97;;;14.28;100.00
12468;BME280;57850;52.922;6.256;2023-04-01T10:48:50;99525.66;;;14.40;100.00
12468;BME280;57850;52.922;6.256;2023-04-01T10:54:46;99532.53;;;14.17;100.00
12468;BME280;57850;52.922;6.256;2023-04-01T10:57:55;99541.34;;;14.16;100.00
12468;BME280;57850;52.922;6.256;2023-04-01T11:01:00;99544.06;;;14.27;100.00
12468;BME280;57850;52.922;6.256;2023-04-01T11:07:16;99552.59;;;14.18;100.00
12468;BME280;57850;52.922;6.256;2023-04-01T11:13:12;99550.59;;;14.22;100.00
12468;BME280;57850;52.922;6.256;2023-04-01T11:19:10;99568.03;;;13.98;100.00
12468;BME280;57850;52.922;6.256;2023-04-01T11:22:10;99553.75;;;14.14;100.00
12468;BME280;57850;52.922;6.256;2023-04-01T11:27:43;99608.78;;;13.78;100.00
12468;BME280;57850;52.922;6.256;2023-04-01T11:30:49;99627.88;;;13.80;100.00
12468;BME280;57850;52.922;6.256;2023-04-01T11:33:23;99627.44;;;13.86;100.00
12468;BME280;57850;52.922;6.256;2023-04-01T11:36:14;99646.41;;;13.64;100.00
12468;BME280;57850;52.922;6.256;2023-04-01T11:39:01;99646.72;;;13.47;100.00
12468;BME280;57850;52.922;6.256;2023-04-01T11:41:38;99642.88;;;13.65;100.00
12468;BME280;57850;52.922;6.256;2023-04-01T11:44:15;99640.84;;;13.81;100.00
12468;BME280;57850;52.922;6.256;2023-04-01T11:46:51;99659.31;;;13.92;100.00
12468;BME280;57850;52.922;6.256;2023-04-01T11:49:30;99652.38;;;14.04;100.00
12468;BME280;57850;52.922;6.256;2023-04-01T11:52:13;99681.03;;;13.94;100.00
12468;BME280;57850;52.922;6.256;2023-04-01T11:55:10;99704.75;;;13.80;100.00
12468;BME280;57850;52.922;6.256;2023-04-01T11:58:08;99718.53;;;13.57;100.00
12468;BME280;57850;52.922;6.256;2023-04-01T12:00:51;99702.56;;;13.87;100.00
12468;BME280;57850;52.922;6.256;2023-04-01T12:03:37;99720.47;;;13.68;100.00
12468;BME280;57850;52.922;6.256;2023-04-01T12:06:14;99709.78;;;14.09;100.00
12468;BME280;57850;52.922;6.256;2023-04-01T12:08:46;99723.63;;;13.98;100.00
12468;BME280;57850;52.922;6.256;2023-04-01T12:11:25;99738.63;;;13.83;100.00
12468;BME280;57850;52.922;6.256;2023-04-01T12:13:59;99720.50;;;13.93;100.00
12468;BME280;57850;52.922;6.256;2023-04-01T12:16:40;99725.81;;;13.91;100.00
12468;BME280;57850;52.922;6.256;2023-04-01T12:19:15;99743.63;;;13.74;100.00
12468;BME280;57850;52.922;6.256;2023-04-01T12:21:52;99755.66;;;14.03;100.00
12468;BME280;57850;52.922;6.256;2023-04-01T12:24:45;99759.72;;;14.32;100.00
12468;BME280;57850;52.922;6.256;2023-04-01T12:27:33;99783.88;;;14.25;100.00
12468;BME280;57850;52.922;6.256;2023-04-01T12:30:32;99819.41;;;14.04;100.00
12468;BME280;57850;52.922;6.256;2023-04-01T12:33:24;99825.22;;;14.09;100.00
12468;BME280;57850;52.922;6.256;2023-04-01T12:36:01;99840.81;;;13.98;100.00
12468;BME280;57850;52.922;6.256;2023-04-01T12:38:41;99806.06;;;14.33;100.00
12468;BME280;57850;52.922;6.256;2023-04-01T12:41:17;99841.59;;;14.12;100.00
12468;BME280;57850;52.922;6.256;2023-04-01T12:47:00;99868.81;;;13.97;100.00
12468;BME280;57850;52.922;6.256;2023-04-01T12:49:56;99881.38;;;13.92;100.00
12468;BME280;57850;52.922;6.256;2023-04-01T12:52:35;99868.78;;;14.24;100.00
12468;BME280;57850;52.922;6.256;2023-04-01T12:55:32;99909.84;;;13.98;100.00
12468;BME280;57850;52.922;6.256;2023-04-01T12:58:42;99914.97;;;14.26;100.00
12468;BME280;57850;52.922;6.256;2023-04-01T13:01:30;99941.41;;;14.23;100.00
12468;BME280;57850;52.922;6.256;2023-04-01T13:04:34;99960.44;;;14.13;100.00
12468;BME280;57850;52.922;6.256;2023-04-01T13:07:37;99962.47;;;14.36;100.00
12468;BME280;57850;52.922;6.256;2023-04-01T13:10:15;99986.13;;;14.22;100.00
12468;BME280;57850;52.922;6.256;2023-04-01T13:12:58;100003.53;;;13.96;100.00
12468;BME280;57850;52.922;6.256;2023-04-01T13:15:32;99995.47;;;13.99;100.00
12468;BME280;57850;52.922;6.256;2023-04-01T13:18:17;99987.69;;;13.98;100.00
12468;BME280;57850;52.922;6.256;2023-04-01T13:20:57;100001.97;;;13.79;100.00
12468;BME280;57850;52.922;6.256;2023-04-01T13:23:37;100003.47;;;13.83;100.00
12468;BME280;57850;52.922;6.256;2023-04-01T13:26:13;100018.56;;;13.52;100.00
12468;BME280;57850;52.922;6.256;2023-04-01T13:28:47;100003.00;;;13.77;100.00
12468;BME280;57850;52.922;6.256;2023-04-01T13:34:33;100013.78;;;13.58;100.00
12468;BME280;57850;52.922;6.256;2023-04-01T13:37:16;100008.44;;;13.60;100.00
12468;BME280;57850;52.922;6.256;2023-04-01T13:39:58;100022.50;;;13.30;100.00
12468;BME280;57850;52.922;6.256;2023-04-01T13:42:31;100013.69;;;13.60;100.00
12468;BME280;57850;52.922;6.256;2023-04-01T13:45:08;100029.13;;;13.36;100.00
12468;BME280;57850;52.922;6.256;2023-04-01T13:50:54;100029.91;;;13.52;100.00
12468;BME280;57850;52.922;6.256;2023-04-01T13:56:41;100017.81;;;13.64;100.00
12468;BME280;57850;52.922;6.256;2023-04-01T13:59:23;100034.28;;;13.37;100.00
12468;BME280;57850;52.922;6.256;2023-04-01T14:01:58;100021.53;;;13.31;100.00
12468;BME280;57850;52.922;6.256;2023-04-01T14:04:49;100019.59;;;13.35;100.00
12468;BME280;57850;52.922;6.256;2023-04-01T14:07:32;100032.22;;;13.14;100.00
12468;BME280;57850;52.922;6.256;2023-04-01T14:10:18;100036.44;;;13.31;100.00
12468;BME280;57850;52.922;6.256;2023-04-01T14:12:50;100046.06;;;13.30;100.00
12468;BME280;57850;52.922;6.256;2023-04-01T14:15:33;100082.16;;;13.11;100.00
12468;BME280;57850;52.922;6.256;2023-04-01T14:18:28;100091.41;;;12.87;100.00
12468;BME280;57850;52.922;6.256;2023-04-01T14:21:11;100091.41;;;13.17;100.00
12468;BME280;57850;52.922;6.256;2023-04-01T14:26:59;100116.78;;;13.16;100.00
12468;BME280;57850;52.922;6.256;2023-04-01T14:29:34;100125.28;;;13.20;100.00
12468;BME280;57850;52.922;6.256;2023-04-01T14:32:11;100138.19;;;13.09;100.00
12468;BME280;57850;52.922;6.256;2023-04-01T14:34:56;100131.75;;;13.14;100.00
12468;BME280;57850;52.922;6.256;2023-04-01T14:37:54;100128.56;;;13.09;100.00
12468;BME280;57850;52.922;6.256;2023-04-01T14:40:38;100143.84;;;12.85;100.00
12468;BME280;57850;52.922;6.256;2023-04-01T14:43:23;100120.03;;;12.90;100.00
12468;BME280;57850;52.922;6.256;2023-04-01T14:46:17;100127.41;;;12.68;100.00